createdAt,value
2018-05-16T00:03:29.525Z,"    0"
2018-05-16T00:08:25.777Z,"    0"
2018-05-16T00:13:21.920Z,"    0"
2018-05-16T00:18:17.967Z,"    0"
2018-05-16T00:23:13.612Z,"    0"
2018-05-16T00:28:10.593Z,"    0"
2018-05-16T00:33:07.051Z,"    0"
2018-05-16T00:38:02.547Z,"    0"
2018-05-16T00:42:59.313Z,"    0"
2018-05-16T00:47:55.952Z,"    0"
2018-05-16T00:52:51.966Z,"    0"
2018-05-16T00:57:47.565Z,"    0"
2018-05-16T01:02:44.447Z,"    0"
2018-05-16T01:07:41.307Z,"    0"
2018-05-16T01:12:37.590Z,"    0"
2018-05-16T01:17:33.580Z,"    0"
2018-05-16T01:22:29.413Z,"    0"
2018-05-16T01:27:25.199Z,"    0"
2018-05-16T01:32:21.318Z,"    0"
2018-05-16T01:37:17.059Z,"    0"
2018-05-16T01:42:13.227Z,"    0"
2018-05-16T01:47:09.117Z,"    0"
2018-05-16T01:52:05.347Z,"    0"
2018-05-16T01:57:01.075Z,"    0"
2018-05-16T02:01:57.027Z,"    0"
2018-05-16T02:06:52.586Z,"    0"
2018-05-16T02:11:48.192Z,"    0"
2018-05-16T02:16:44.497Z,"    0"
2018-05-16T02:21:40.743Z,"    0"
2018-05-16T02:26:36.662Z,"    0"
2018-05-16T02:31:32.928Z,"    0"
2018-05-16T02:36:28.720Z,"    0"
2018-05-16T02:41:24.736Z,"    0"
2018-05-16T02:46:20.582Z,"    0"
2018-05-16T02:51:17.282Z,"    0"
2018-05-16T02:56:13.548Z,"    4"
2018-05-16T03:01:08.828Z,"    4"
2018-05-16T03:06:04.749Z,"    4"
2018-05-16T03:11:00.240Z,"   12"
2018-05-16T03:15:56.185Z,"   24"
2018-05-16T03:20:51.989Z,"   40"
2018-05-16T03:25:47.477Z,"   64"
2018-05-16T03:30:43.738Z,"  104"
2018-05-16T03:35:39.604Z,"  160"
2018-05-16T03:40:35.924Z,"  236"
2018-05-16T03:45:31.494Z,"  336"
2018-05-16T03:50:27.460Z,"  468"
2018-05-16T03:55:24.382Z,"  644"
2018-05-16T04:00:19.842Z,"  812"
2018-05-16T04:05:16.761Z,"  988"
2018-05-16T04:10:12.527Z," 1160"
2018-05-16T04:15:09.563Z," 1348"
2018-05-16T04:20:05.085Z," 2092"
2018-05-16T04:25:01.779Z," 2612"
2018-05-16T04:29:58.240Z," 3160"
2018-05-16T04:34:54.548Z," 3704"
2018-05-16T04:39:51.954Z," 4344"
2018-05-16T04:44:48.178Z," 4732"
2018-05-16T04:49:44.485Z," 3284"
2018-05-16T04:54:40.636Z," 3764"
2018-05-16T04:59:36.476Z," 4224"
2018-05-16T05:04:32.873Z," 4692"
2018-05-16T05:09:29.788Z," 5080"
2018-05-16T05:14:25.378Z," 4340"
2018-05-16T05:19:21.097Z," 4944"
2018-05-16T05:24:17.554Z," 4556"
2018-05-16T05:29:13.311Z," 4364"
2018-05-16T05:34:10.022Z," 4536"
2018-05-16T05:39:05.605Z," 6320"
2018-05-16T05:44:02.121Z," 9340"
2018-05-16T05:48:58.718Z," 7756"
2018-05-16T05:53:54.841Z," 5888"
2018-05-16T05:58:50.556Z," 6520"
2018-05-16T06:03:46.410Z," 7092"
2018-05-16T06:08:42.249Z," 5880"
2018-05-16T06:13:38.138Z," 7352"
2018-05-16T06:18:34.096Z," 9044"
2018-05-16T06:23:30.187Z," 8948"
2018-05-16T06:28:27.044Z," 5344"
2018-05-16T06:33:22.429Z," 6792"
2018-05-16T06:38:17.932Z," 7212"
2018-05-16T06:43:14.829Z," 7324"
2018-05-16T06:48:10.428Z," 7796"
2018-05-16T06:53:06.203Z," 7188"
2018-05-16T06:58:02.230Z," 5928"
2018-05-16T07:02:57.685Z," 3600"
2018-05-16T07:07:53.536Z," 2428"
2018-05-16T07:12:50.419Z," 4384"
2018-05-16T07:17:46.003Z," 5484"
2018-05-16T07:22:41.934Z," 4516"
2018-05-16T07:27:38.249Z," 4544"
2018-05-16T07:32:34.059Z," 3996"
2018-05-16T07:37:30.004Z," 5212"
2018-05-16T07:42:25.812Z," 5968"
2018-05-16T07:47:21.871Z," 5496"
2018-05-16T07:52:17.491Z," 5416"
2018-05-16T07:57:13.309Z," 7548"
2018-05-16T08:02:09.749Z," 7620"
2018-05-16T08:07:07.291Z,12416
2018-05-16T08:12:03.350Z," 9276"
2018-05-16T08:16:59.408Z," 9008"
2018-05-16T08:21:56.459Z,10520
2018-05-16T08:26:52.933Z,17984
2018-05-16T08:31:49.537Z,13248
2018-05-16T08:36:46.140Z,15348
2018-05-16T08:41:43.054Z,23520
2018-05-16T08:46:39.113Z,15028
2018-05-16T08:51:35.167Z,25056
2018-05-16T08:56:32.111Z,20064
2018-05-16T09:01:28.849Z,40672
2018-05-16T09:06:26.305Z,21216
2018-05-16T09:11:22.774Z,26880
2018-05-16T09:16:18.542Z,21984
2018-05-16T09:21:15.196Z,32864
2018-05-16T09:26:10.944Z,21888
2018-05-16T09:31:06.725Z,15400
2018-05-16T09:36:01.669Z,11528
2018-05-16T09:40:56.830Z,13124
2018-05-16T09:45:52.690Z,14424
2018-05-16T09:50:48.784Z,26496
2018-05-16T09:55:45.341Z,19040
2018-05-16T10:00:41.906Z,34976
2018-05-16T10:05:38.851Z,16928
2018-05-16T10:10:34.476Z,22464
2018-05-16T10:15:30.303Z,19200
2018-05-16T10:20:26.630Z,14716
2018-05-16T10:25:22.235Z,10816
2018-05-16T10:30:17.966Z,10500
2018-05-16T10:35:20.475Z,16384
2018-05-16T10:40:18.422Z,24256
2018-05-16T10:45:15.155Z,34752
2018-05-16T10:50:11.136Z,15760
2018-05-16T10:55:07.279Z,26880
2018-05-16T11:00:03.811Z,44928
2018-05-16T11:05:02.479Z,45760
2018-05-16T11:09:59.397Z,14308
2018-05-16T11:14:53.775Z,13076
2018-05-16T11:19:49.275Z,15300
2018-05-16T11:24:45.818Z,18144
2018-05-16T11:29:42.391Z,25088
2018-05-16T11:34:44.959Z,27424
2018-05-16T11:39:40.668Z,28128
2018-05-16T11:44:36.918Z,19936
2018-05-16T11:49:32.953Z,22944
2018-05-16T11:54:29.779Z,16800
2018-05-16T11:59:25.767Z,18304
2018-05-16T12:04:22.603Z,17728
2018-05-16T12:09:18.658Z,27456
2018-05-16T12:14:15.685Z,25408
2018-05-16T12:19:14.910Z,34592
2018-05-16T12:24:12.344Z,29600
2018-05-16T12:29:08.623Z,35040
2018-05-16T12:34:04.463Z,28032
2018-05-16T12:38:59.554Z,12912
2018-05-16T12:43:55.117Z,21376
2018-05-16T12:48:51.403Z,21728
2018-05-16T12:53:48.839Z,10696
2018-05-16T12:58:44.058Z,12156
2018-05-16T13:03:41.256Z,11076
2018-05-16T13:08:37.950Z,18816
2018-05-16T13:13:33.771Z,10848
2018-05-16T13:18:29.518Z,12472
2018-05-16T13:23:25.502Z,12360
2018-05-16T13:28:22.602Z,10084
2018-05-16T13:33:19.500Z,10068
2018-05-16T13:38:16.752Z,32800
2018-05-16T13:43:13.258Z,20608
2018-05-16T13:48:09.062Z," 8232"
2018-05-16T13:53:04.714Z,15356
2018-05-16T13:58:01.165Z,10180
2018-05-16T14:02:57.085Z,10612
2018-05-16T14:07:54.232Z," 9784"
2018-05-16T14:12:50.038Z," 9604"
2018-05-16T14:17:45.714Z," 9868"
2018-05-16T14:22:41.513Z,10308
2018-05-16T14:27:37.360Z,11424
2018-05-16T14:32:33.535Z,11372
2018-05-16T14:37:29.877Z,12988
2018-05-16T14:42:26.067Z,10472
2018-05-16T14:47:22.215Z," 6984"
2018-05-16T14:52:17.744Z," 5776"
2018-05-16T14:57:13.268Z," 3980"
2018-05-16T15:02:08.931Z," 5708"
2018-05-16T15:07:06.016Z,10796
2018-05-16T15:12:02.125Z,12316
2018-05-16T15:16:58.612Z,11860
2018-05-16T15:21:56.225Z,13084
2018-05-16T15:26:51.692Z,13172
2018-05-16T15:31:48.555Z,10104
2018-05-16T15:36:43.669Z," 5096"
2018-05-16T15:41:38.916Z," 2984"
2018-05-16T15:46:33.884Z," 2500"
2018-05-16T15:51:29.119Z," 4872"
2018-05-16T15:56:24.575Z," 5652"
2018-05-16T16:01:21.142Z," 6032"
2018-05-16T16:06:16.493Z," 3916"
2018-05-16T16:11:12.138Z," 4408"
2018-05-16T16:16:09.696Z," 4200"
2018-05-16T16:21:05.789Z," 3972"
2018-05-16T16:26:02.895Z," 5060"
2018-05-16T16:30:58.689Z," 6056"
2018-05-16T16:35:55.715Z," 7208"
2018-05-16T16:40:51.965Z," 7380"
2018-05-16T16:45:48.419Z," 7660"
2018-05-16T16:50:44.427Z," 7880"
2018-05-16T16:55:40.863Z," 7640"
2018-05-16T17:00:37.214Z," 7132"
2018-05-16T17:05:33.302Z," 6452"
2018-05-16T17:10:29.194Z," 5280"
2018-05-16T17:15:25.073Z," 5060"
2018-05-16T17:20:21.326Z," 4948"
2018-05-16T17:25:17.469Z," 4516"
2018-05-16T17:30:14.347Z," 4144"
2018-05-16T17:35:09.770Z," 4476"
2018-05-16T17:40:05.403Z," 4716"
2018-05-16T17:45:01.069Z," 5112"
2018-05-16T17:49:57.098Z," 4532"
2018-05-16T17:54:53.172Z," 3980"
2018-05-16T17:59:48.843Z," 2832"
2018-05-16T18:04:44.429Z," 2008"
2018-05-16T18:09:41.007Z," 1608"
2018-05-16T18:14:36.596Z," 1300"
2018-05-16T18:19:32.254Z," 1144"
2018-05-16T18:24:27.810Z," 1120"
2018-05-16T18:29:23.832Z,"  948"
2018-05-16T18:34:21.241Z,"  852"
2018-05-16T18:39:16.511Z,"  788"
2018-05-16T18:44:12.067Z,"  684"
2018-05-16T18:49:07.680Z,"  572"
2018-05-16T18:54:03.459Z,"  512"
2018-05-16T18:58:59.438Z,"  436"
2018-05-16T19:03:55.022Z,"  340"
2018-05-16T19:08:50.692Z,"  248"
2018-05-16T19:13:47.564Z,"  164"
2018-05-16T19:18:43.900Z,"  108"
2018-05-16T19:23:39.701Z,"   64"
2018-05-16T19:28:35.535Z,"   36"
2018-05-16T19:33:31.309Z,"   20"
2018-05-16T19:38:27.280Z,"    8"
2018-05-16T19:43:23.131Z,"    8"
2018-05-16T19:48:19.041Z,"    0"
2018-05-16T19:53:15.020Z,"    0"
2018-05-16T19:58:10.829Z,"    0"
2018-05-16T20:03:06.925Z,"    0"
2018-05-16T20:08:02.714Z,"    0"
2018-05-16T20:12:58.638Z,"    0"
2018-05-16T20:17:54.685Z,"    0"
2018-05-16T20:22:51.407Z,"    0"
2018-05-16T20:27:46.875Z,"    0"
2018-05-16T20:32:43.671Z,"    0"
2018-05-16T20:37:39.240Z,"    0"
2018-05-16T20:42:34.977Z,"    0"
2018-05-16T20:47:30.719Z,"    0"
2018-05-16T20:52:26.575Z,"    0"
2018-05-16T20:57:23.224Z,"    0"
2018-05-16T21:02:18.850Z,"    0"
2018-05-16T21:07:14.771Z,"    0"
2018-05-16T21:12:11.704Z,"    0"
2018-05-16T21:17:07.244Z,"    0"
2018-05-16T21:22:02.676Z,"    0"
2018-05-16T21:26:58.494Z,"    0"
2018-05-16T21:31:54.723Z,"    0"
2018-05-16T21:36:50.486Z,"    0"
2018-05-16T21:41:46.416Z,"    0"
2018-05-16T21:46:43.244Z,"    0"
2018-05-16T21:51:38.713Z,"    0"
2018-05-16T21:56:34.928Z,"    0"
2018-05-16T22:01:31.807Z,"    0"
2018-05-16T22:06:27.333Z,"    0"
2018-05-16T22:11:23.662Z,"    0"
2018-05-16T22:16:19.492Z,"    0"
2018-05-16T22:21:16.298Z,"    0"
2018-05-16T22:26:11.683Z,"    0"
2018-05-16T22:31:07.771Z,"    0"
2018-05-16T22:36:03.159Z,"    0"
2018-05-16T22:40:59.132Z,"    0"
2018-05-16T22:45:55.168Z,"    0"
2018-05-16T22:50:50.691Z,"    0"
2018-05-16T22:55:47.177Z,"    0"
2018-05-16T23:00:42.975Z,"    0"
2018-05-16T23:05:39.536Z,"    0"
2018-05-16T23:10:36.397Z,"    0"
2018-05-16T23:15:31.831Z,"    0"
2018-05-16T23:20:27.572Z,"    0"
2018-05-16T23:25:24.054Z,"    0"
2018-05-16T23:30:19.720Z,"    0"
2018-05-16T23:35:16.624Z,"    0"
2018-05-16T23:40:12.041Z,"    0"
2018-05-16T23:45:07.744Z,"    0"
2018-05-16T23:50:03.321Z,"    0"
2018-05-16T23:54:58.721Z,"    0"
2018-05-16T23:59:54.624Z,"    0"
